CheckWX is a tool to help pilots better visualize weather data.  It is not intended as a substitute for an official pre-flight weather briefing.

12:43:27 UTC

KSGT METAR
Stuttgart Municipal Carl Humphrey Field Airport
Stuttgart, Arkansas, USA
Current

8 mins ago

KSGT 221235Z AUTO 09010KT 7SM RA BKN003 OVC090 07/07 A3010 RMK AO2 P0008
Observed
Feb-22 @ 12:35 UTC
Wind
  • 090° at 10 KTS
Visibility
7 SM
Flight Rules
LIFR
Conditions
Rain
Cloud Levels
  • Broken at 300' AGL
  • Overcast at 9,000' AGL
Temperature
C / 45°F
Dewpoint
C / 45°F
Humidity
100%
Altimeter
30.1" Hg
Pressure
1019.32 hPa
Current Rain
0.08"
Previous

17 mins ago

KSGT 221226Z AUTO 08008KT 7SM RA SCT003 OVC090 07/07 A3009 RMK AO2 PRESRR P0006
Observed
Feb-22 @ 12:26 UTC
Wind
  • 080° at 8 KTS
Visibility
7 SM
Flight Rules
VFR
Conditions
Rain
Cloud Levels
  • Scattered at 300' AGL
  • Overcast at 9,000' AGL
Temperature
C / 45°F
Dewpoint
C / 45°F
Humidity
100%
Altimeter
30.09" Hg
Pressure
1018.92 hPa
Current Rain
0.06"
Previous

47 mins ago

KSGT 221156Z AUTO 10011KT 6SM RA BR OVC080 07/06 A3008 RMK AO2 PRESFR SLP187 P0014 60031 70092 T00670061 10067 20061 56018
Observed
Feb-22 @ 11:56 UTC
Wind
  • 100° at 11 KTS
Visibility
6 SM
Flight Rules
VFR
Conditions
Rain, Mist
Cloud Levels
  • Overcast at 8,000' AGL
Temperature
C / 45°F
Dewpoint
C / 43°F
Humidity
93%
Altimeter
30.08" Hg
Pressure
1018.7 hPa
Current Rain
0.14"